createdAt,value
2018-04-12T00:01:28.489Z,44.57
2018-04-12T00:04:31.001Z,41.70
2018-04-12T00:07:33.504Z,42.07
2018-04-12T00:10:36.031Z,44.13
2018-04-12T00:13:38.504Z,41.70
2018-04-12T00:16:41.001Z,43.87
2018-04-12T00:19:43.480Z,43.17
2018-04-12T00:22:45.989Z,43.50
2018-04-12T00:25:48.496Z,41.97
2018-04-12T00:28:50.996Z,43.43
2018-04-12T00:31:53.550Z,42.70
2018-04-12T00:34:56.136Z,42.03
2018-04-12T00:37:58.636Z,42.20
2018-04-12T00:41:01.111Z,42.30
2018-04-12T00:44:03.603Z,42.90
2018-04-12T00:47:06.054Z,42.90
2018-04-12T00:50:08.571Z,42.60
2018-04-12T00:53:11.086Z,42.57
2018-04-12T00:56:13.692Z,41.57
2018-04-12T00:59:16.243Z,43.00
2018-04-12T01:02:18.708Z,42.33
2018-04-12T01:05:21.212Z,43.40
2018-04-12T01:08:23.718Z,44.33
2018-04-12T01:11:26.233Z,42.07
2018-04-12T01:14:28.806Z,46.20
2018-04-12T01:17:31.271Z,43.40
2018-04-12T01:20:33.816Z,44.47
2018-04-12T01:23:36.328Z,43.70
2018-04-12T01:26:38.830Z,44.77
2018-04-12T01:29:41.346Z,46.80
2018-04-12T01:32:43.791Z,44.57
2018-04-12T01:35:46.281Z,45.57
2018-04-12T01:38:48.771Z,43.73
2018-04-12T01:41:51.257Z,44.90
2018-04-12T01:44:53.852Z,45.67
2018-04-12T01:47:56.361Z,45.70
2018-04-12T01:50:58.843Z,46.03
2018-04-12T01:54:01.302Z,45.37
2018-04-12T01:57:03.817Z,43.60
2018-04-12T02:00:06.293Z,42.93
2018-04-12T02:03:08.876Z,44.03
2018-04-12T02:06:11.366Z,44.23
2018-04-12T02:09:13.862Z,46.73
2018-04-12T02:12:16.509Z,46.50
2018-04-12T02:15:18.967Z,45.60
2018-04-12T02:18:21.465Z,45.37
2018-04-12T02:21:23.990Z,44.70
2018-04-12T02:24:26.464Z,43.57
2018-04-12T02:27:28.949Z,44.50
2018-04-12T02:30:31.484Z,46.60
2018-04-12T02:33:33.998Z,43.80
2018-04-12T02:36:36.477Z,45.27
2018-04-12T02:39:38.974Z,43.77
2018-04-12T02:42:41.497Z,46.57
2018-04-12T02:45:44.013Z,48.27
2018-04-12T02:48:46.463Z,48.70
2018-04-12T02:51:49.105Z,46.20
2018-04-12T02:54:51.641Z,43.50
2018-04-12T02:57:54.140Z,47.53
2018-04-12T03:00:56.620Z,42.67
2018-04-12T03:03:59.093Z,42.10
2018-04-12T03:07:01.594Z,43.80
2018-04-12T03:10:04.186Z,39.83
2018-04-12T03:13:06.740Z,41.13
2018-04-12T03:16:09.214Z,39.57
2018-04-12T03:19:11.765Z,41.30
2018-04-12T03:22:14.224Z,42.00
2018-04-12T03:25:16.760Z,43.20
2018-04-12T03:28:19.249Z,43.80
2018-04-12T03:31:21.753Z,42.37
2018-04-12T03:34:24.260Z,43.73
2018-04-12T03:37:26.748Z,43.37
2018-04-12T03:40:29.256Z,44.50
2018-04-12T03:43:31.864Z,43.67
2018-04-12T03:46:34.325Z,42.00
2018-04-12T03:49:36.870Z,43.63
2018-04-12T03:52:39.361Z,42.67
2018-04-12T03:55:41.876Z,41.93
2018-04-12T03:58:44.348Z,40.23
2018-04-12T04:01:46.918Z,38.70
2018-04-12T04:04:49.389Z,40.97
2018-04-12T04:07:51.931Z,36.93
2018-04-12T04:10:54.413Z,38.90
2018-04-12T04:13:56.879Z,37.17
2018-04-12T04:17:11.574Z,40.10
2018-04-12T04:20:26.049Z,39.17
2018-04-12T04:23:28.545Z,42.47
2018-04-12T04:26:31.023Z,43.07
2018-04-12T04:29:33.606Z,40.90
2018-04-12T04:32:36.110Z,41.10
2018-04-12T04:35:38.609Z,40.50
2018-04-12T04:38:41.040Z,37.77
2018-04-12T04:41:44.735Z,37.40
2018-04-12T04:44:47.276Z,39.97
2018-04-12T04:47:49.777Z,40.60
2018-04-12T04:50:52.309Z,35.10
2018-04-12T04:53:54.782Z,41.00
2018-04-12T04:56:57.261Z,32.63
2018-04-12T04:59:59.707Z,39.60
2018-04-12T05:03:02.172Z,39.37
2018-04-12T05:06:04.676Z,37.80
2018-04-12T05:09:07.187Z,39.97
2018-04-12T05:12:09.650Z,39.43
2018-04-12T05:15:12.116Z,36.63
2018-04-12T05:18:14.746Z,36.50
2018-04-12T05:21:17.181Z,36.67
2018-04-12T05:24:19.686Z,40.10
2018-04-12T05:27:22.160Z,40.00
2018-04-12T05:30:24.654Z,41.17
2018-04-12T05:33:27.116Z,38.03
2018-04-12T05:36:29.648Z,39.60
2018-04-12T05:39:32.108Z,37.53
2018-04-12T05:42:34.621Z,40.83
2018-04-12T05:45:37.157Z,38.87
2018-04-12T05:48:39.689Z,38.93
2018-04-12T05:51:42.150Z,39.50
2018-04-12T05:54:44.645Z,38.93
2018-04-12T05:57:47.095Z,40.07
2018-04-12T06:00:49.628Z,38.93
2018-04-12T06:03:52.085Z,36.80
2018-04-12T06:06:54.587Z,37.50
2018-04-12T06:09:57.060Z,41.57
2018-04-12T06:12:59.596Z,39.43
2018-04-12T06:16:02.091Z,39.23
2018-04-12T06:19:04.599Z,35.67
2018-04-12T06:22:07.069Z,38.87
2018-04-12T06:25:09.533Z,41.37
2018-04-12T06:28:12.008Z,41.43
2018-04-12T06:31:14.533Z,37.30
2018-04-12T06:34:17.022Z,39.83
2018-04-12T06:37:19.531Z,40.13
2018-04-12T06:40:22.107Z,39.03
2018-04-12T06:43:24.662Z,37.90
2018-04-12T06:46:27.170Z,40.00
2018-04-12T06:49:29.687Z,37.50
2018-04-12T06:52:32.246Z,38.73
2018-04-12T06:55:34.769Z,36.27
2018-04-12T06:58:37.289Z,38.63
2018-04-12T07:01:39.759Z,38.10
2018-04-12T07:04:42.252Z,33.47
2018-04-12T07:07:44.743Z,39.63
2018-04-12T07:10:47.223Z,40.17
2018-04-12T07:13:49.699Z,42.63
2018-04-12T07:16:52.235Z,39.50
2018-04-12T07:19:54.787Z,40.20
2018-04-12T07:22:57.290Z,37.50
2018-04-12T07:25:59.806Z,40.53
2018-04-12T07:29:02.279Z,41.50
2018-04-12T07:32:04.848Z,40.00
2018-04-12T07:35:07.388Z,40.97
2018-04-12T07:38:09.845Z,41.87
2018-04-12T07:41:12.370Z,42.53
2018-04-12T07:44:14.844Z,39.50
2018-04-12T07:47:17.382Z,40.20
2018-04-12T07:50:19.821Z,38.30
2018-04-12T07:53:22.360Z,41.03
2018-04-12T07:56:24.936Z,36.20
2018-04-12T07:59:27.384Z,40.20
2018-04-12T08:02:29.899Z,41.10
2018-04-12T08:05:32.474Z,40.67
2018-04-12T08:08:34.971Z,39.87
2018-04-12T08:11:37.481Z,38.90
2018-04-12T08:14:39.956Z,40.80
2018-04-12T08:20:51.306Z,41.50
2018-04-12T08:23:53.945Z,39.47
2018-04-12T08:26:56.443Z,42.60
2018-04-12T08:29:58.937Z,40.07
2018-04-12T08:33:01.406Z,40.47
2018-04-12T08:36:03.910Z,39.87
2018-04-12T08:39:06.453Z,41.37
2018-04-12T08:42:08.993Z,42.57
2018-04-12T08:45:11.472Z,41.67
2018-04-12T08:48:13.968Z,41.10
2018-04-12T08:51:16.511Z,41.63
2018-04-12T08:54:18.992Z,42.90
2018-04-12T08:57:21.499Z,42.80
2018-04-12T09:00:23.958Z,43.20
2018-04-12T09:03:26.497Z,43.40
2018-04-12T09:06:29.067Z,40.10
2018-04-12T09:09:31.587Z,41.20
2018-04-12T09:12:34.073Z,39.87
2018-04-12T09:15:36.605Z,42.77
2018-04-12T09:18:39.098Z,39.70
2018-04-12T09:21:41.613Z,41.30
2018-04-12T09:24:44.134Z,40.50
2018-04-12T09:27:46.635Z,43.33
2018-04-12T09:30:49.676Z,44.57
2018-04-12T09:33:52.152Z,46.77
2018-04-12T09:36:54.680Z,50.60
2018-04-12T09:39:57.199Z,45.67
2018-04-12T09:42:59.698Z,47.23
2018-04-12T09:46:02.180Z,42.83
2018-04-12T09:49:04.712Z,42.33
2018-04-12T09:52:07.206Z,41.40
2018-04-12T09:55:09.716Z,41.40
2018-04-12T09:58:12.210Z,45.20
2018-04-12T10:01:15.460Z,44.00
2018-04-12T10:04:17.924Z,41.73
2018-04-12T10:07:20.445Z,41.67
2018-04-12T10:10:22.954Z,44.00
2018-04-12T10:13:25.465Z,41.80
2018-04-12T10:16:27.953Z,42.30
2018-04-12T10:19:30.509Z,42.00
2018-04-12T10:22:32.989Z,42.93
2018-04-12T10:25:35.650Z,45.27
2018-04-12T10:28:38.159Z,43.57
2018-04-12T10:31:40.690Z,42.40
2018-04-12T10:34:43.205Z,41.67
2018-04-12T10:37:45.709Z,44.83
2018-04-12T10:40:48.208Z,43.40
2018-04-12T10:43:50.695Z,44.63
2018-04-12T10:46:53.189Z,43.00
2018-04-12T10:49:55.682Z,44.50
2018-04-12T10:52:58.298Z,44.63
2018-04-12T10:56:00.840Z,45.50
2018-04-12T10:59:03.320Z,46.90
2018-04-12T11:02:05.865Z,46.00
2018-04-12T11:05:08.442Z,48.03
2018-04-12T11:08:10.963Z,45.63
2018-04-12T11:11:13.467Z,45.73
2018-04-12T11:14:16.006Z,45.57
2018-04-12T11:17:18.461Z,47.77
2018-04-12T11:20:20.928Z,46.23
2018-04-12T11:23:23.539Z,48.70
2018-04-12T11:26:26.003Z,47.10
2018-04-12T11:29:28.493Z,46.83
2018-04-12T11:32:31.007Z,45.37
2018-04-12T11:35:33.554Z,44.97
2018-04-12T11:38:36.078Z,44.57
2018-04-12T11:41:38.549Z,46.27
2018-04-12T11:44:41.054Z,42.53
2018-04-12T11:47:43.589Z,45.33
2018-04-12T11:50:46.041Z,46.50
2018-04-12T11:53:48.549Z,46.03
2018-04-12T11:56:51.019Z,42.27
2018-04-12T11:59:53.521Z,44.30
2018-04-12T12:02:55.993Z,45.10
2018-04-12T12:05:58.509Z,43.87
2018-04-12T12:09:00.992Z,43.40
2018-04-12T12:12:03.525Z,45.40
2018-04-12T12:15:06.020Z,42.17
2018-04-12T12:18:08.592Z,46.10
2018-04-12T12:21:11.115Z,44.37
2018-04-12T12:24:13.625Z,44.00
2018-04-12T12:27:16.122Z,42.90
2018-04-12T12:30:18.600Z,42.30
2018-04-12T12:33:21.129Z,45.03
2018-04-12T12:36:23.669Z,41.87
2018-04-12T12:39:26.455Z,44.70
2018-04-12T12:42:28.944Z,44.90
2018-04-12T12:45:31.479Z,44.27
2018-04-12T12:48:33.976Z,47.13
2018-04-12T12:51:36.479Z,42.97
2018-04-12T12:54:38.978Z,47.33
2018-04-12T12:57:41.481Z,45.90
2018-04-12T13:00:43.945Z,47.00
2018-04-12T13:03:46.463Z,47.90
2018-04-12T13:06:48.947Z,47.73
2018-04-12T13:09:51.579Z,45.40
2018-04-12T13:12:54.143Z,45.50
2018-04-12T13:15:56.666Z,45.17
2018-04-12T13:18:59.141Z,44.60
2018-04-12T13:22:01.725Z,48.00
2018-04-12T13:25:04.419Z,48.23
2018-04-12T13:28:06.928Z,47.03
2018-04-12T13:31:09.453Z,46.63
2018-04-12T13:34:11.969Z,48.93
2018-04-12T13:37:14.737Z,44.07
2018-04-12T13:40:17.304Z,47.33
2018-04-12T13:43:19.831Z,46.23
2018-04-12T13:46:22.408Z,47.40
2018-04-12T13:49:24.858Z,48.20
2018-04-12T13:52:27.381Z,45.17
2018-04-12T13:55:29.855Z,46.50
2018-04-12T13:58:32.449Z,46.13
2018-04-12T14:01:34.964Z,47.50
2018-04-12T14:04:37.457Z,46.27
2018-04-12T14:07:40.046Z,43.40
2018-04-12T14:10:42.543Z,43.97
2018-04-12T14:13:45.051Z,45.03
2018-04-12T14:16:47.582Z,44.30
2018-04-12T14:19:50.084Z,46.20
2018-04-12T14:22:52.605Z,46.03
2018-04-12T14:25:55.453Z,47.13
2018-04-12T14:28:58.020Z,44.37
2018-04-12T14:32:00.531Z,44.93
2018-04-12T14:35:03.105Z,43.80
2018-04-12T14:38:05.881Z,44.40
2018-04-12T14:41:08.553Z,43.37
2018-04-12T14:44:11.224Z,44.53
2018-04-12T14:47:13.726Z,42.97
2018-04-12T14:50:16.204Z,42.60
2018-04-12T14:53:18.812Z,42.37
2018-04-12T14:56:21.322Z,43.00
2018-04-12T14:59:23.835Z,43.03
2018-04-12T15:02:26.358Z,42.07
2018-04-12T15:05:28.864Z,42.40
2018-04-12T15:08:31.387Z,42.37
2018-04-12T15:11:33.928Z,42.20
2018-04-12T15:14:36.469Z,43.70
2018-04-12T15:17:39.045Z,42.20
2018-04-12T15:20:41.603Z,41.37
2018-04-12T15:23:44.102Z,41.17
2018-04-12T15:26:46.575Z,39.03
2018-04-12T15:29:49.107Z,40.20
2018-04-12T15:32:51.639Z,40.63
2018-04-12T15:35:54.111Z,39.77
2018-04-12T15:38:56.682Z,39.23
2018-04-12T15:41:59.205Z,38.93
2018-04-12T15:45:01.722Z,36.27
2018-04-12T15:48:04.196Z,36.10
2018-04-12T15:51:06.728Z,36.57
2018-04-12T15:54:09.205Z,36.70
2018-04-12T15:57:11.733Z,37.07
2018-04-12T16:00:14.378Z,35.30
2018-04-12T16:03:16.941Z,35.97
2018-04-12T16:06:19.440Z,32.53
2018-04-12T16:09:21.940Z,34.57
2018-04-12T16:12:24.516Z,35.30
2018-04-12T16:15:26.988Z,34.40
2018-04-12T16:18:29.553Z,33.87
2018-04-12T16:21:32.037Z,32.00
2018-04-12T16:24:34.615Z,32.00
2018-04-12T16:27:37.085Z,31.50
2018-04-12T16:30:39.655Z,30.20
2018-04-12T16:33:42.107Z,30.23
2018-04-12T16:36:44.645Z,30.17
2018-04-12T16:39:47.171Z,29.63
2018-04-12T16:42:49.645Z,31.00
2018-04-12T16:45:52.204Z,30.47
2018-04-12T16:48:54.766Z,29.97
2018-04-12T16:51:57.312Z,29.20
2018-04-12T16:54:59.767Z,30.57
2018-04-12T16:58:02.319Z,29.03
2018-04-12T17:01:04.896Z,28.80
2018-04-12T17:04:07.410Z,29.20
2018-04-12T17:07:09.938Z,28.60
2018-04-12T17:10:12.482Z,29.13
2018-04-12T17:13:15.023Z,28.30
2018-04-12T17:16:17.538Z,28.83
2018-04-12T17:19:20.049Z,29.73
2018-04-12T17:22:22.588Z,28.80
2018-04-12T17:25:25.158Z,28.50
2018-04-12T17:28:27.777Z,29.77
2018-04-12T17:31:30.342Z,29.53
2018-04-12T17:34:33.737Z,29.90
2018-04-12T17:37:36.240Z,28.33
2018-04-12T17:40:38.744Z,28.07
2018-04-12T17:43:41.222Z,28.00
2018-04-12T17:46:43.778Z,29.37
2018-04-12T17:49:46.333Z,29.30
2018-04-12T17:52:48.859Z,28.87
2018-04-12T17:55:51.465Z,29.27
2018-04-12T17:58:53.915Z,28.53
2018-04-12T18:01:56.480Z,28.77
2018-04-12T18:04:58.945Z,27.87
2018-04-12T18:08:01.505Z,26.80
2018-04-12T18:11:04.023Z,27.30
2018-04-12T18:14:06.528Z,27.67
2018-04-12T18:17:09.090Z,27.00
2018-04-12T18:20:11.665Z,27.43
2018-04-12T18:23:14.219Z,26.83
2018-04-12T18:26:16.846Z,27.00
2018-04-12T18:29:19.380Z,26.23
2018-04-12T18:32:21.904Z,26.13
2018-04-12T18:35:24.482Z,26.33
2018-04-12T18:38:26.985Z,25.77
2018-04-12T18:41:29.617Z,25.73
2018-04-12T18:44:32.210Z,24.50
2018-04-12T18:47:34.733Z,24.80
2018-04-12T18:50:37.221Z,24.20
2018-04-12T18:53:39.751Z,24.33
2018-04-12T18:56:42.412Z,24.67
2018-04-12T18:59:45.004Z,23.77
2018-04-12T19:02:47.554Z,22.53
2018-04-12T19:05:50.103Z,22.53
2018-04-12T19:08:52.785Z,22.93
2018-04-12T19:11:55.375Z,23.60
2018-04-12T19:14:57.999Z,23.03
2018-04-12T19:18:00.557Z,23.73
2018-04-12T19:21:03.111Z,22.70
2018-04-12T19:24:06.522Z,24.37
2018-04-12T19:27:09.161Z,23.43
2018-04-12T19:30:11.696Z,23.40
2018-04-12T19:33:14.191Z,22.50
2018-04-12T19:36:16.716Z,23.70
2018-04-12T19:42:28.012Z,22.77
2018-04-12T19:45:30.533Z,22.37
2018-04-12T19:48:33.047Z,23.60
2018-04-12T19:51:35.599Z,22.43
2018-04-12T19:54:38.090Z,23.13
2018-04-12T19:57:40.724Z,22.67
2018-04-12T20:00:43.283Z,22.90
2018-04-12T20:03:45.817Z,22.77
2018-04-12T20:06:48.323Z,21.87
2018-04-12T20:09:50.825Z,21.90
2018-04-12T20:12:53.537Z,22.13
2018-04-12T20:15:56.040Z,22.10
2018-04-12T20:18:58.556Z,22.13
2018-04-12T20:22:01.092Z,22.97
2018-04-12T20:25:03.605Z,23.03
2018-04-12T20:28:06.230Z,22.30
2018-04-12T20:31:08.694Z,22.43
2018-04-12T20:34:11.207Z,23.20
2018-04-12T20:37:13.732Z,23.70
2018-04-12T20:40:16.310Z,22.67
2018-04-12T20:43:18.864Z,24.40
2018-04-12T20:46:21.388Z,22.20
2018-04-12T20:49:23.990Z,22.53
2018-04-12T20:52:26.533Z,23.90
2018-04-12T20:55:29.006Z,22.77
2018-04-12T20:58:31.536Z,23.70
2018-04-12T21:01:34.049Z,24.10
2018-04-12T21:04:36.605Z,25.17
2018-04-12T21:07:39.075Z,23.07
2018-04-12T21:10:41.637Z,24.40
2018-04-12T21:13:44.143Z,24.33
2018-04-12T21:16:46.754Z,26.10
2018-04-12T21:19:49.239Z,24.57
2018-04-12T21:22:51.868Z,24.90
2018-04-12T21:25:54.441Z,24.67
2018-04-12T21:28:56.980Z,25.33
2018-04-12T21:31:59.521Z,24.13
2018-04-12T21:35:02.056Z,25.70
2018-04-12T21:38:04.540Z,25.00
2018-04-12T21:41:07.086Z,27.90
2018-04-12T21:44:09.596Z,27.40
2018-04-12T21:47:12.132Z,26.03
2018-04-12T21:50:14.660Z,25.03
2018-04-12T21:53:17.263Z,26.60
2018-04-12T21:56:19.745Z,29.03
2018-04-12T21:59:22.269Z,28.00
2018-04-12T22:02:24.774Z,28.50
2018-04-12T22:05:27.260Z,28.47
2018-04-12T22:08:29.798Z,27.90
2018-04-12T22:11:32.335Z,28.53
2018-04-12T22:14:34.806Z,29.03
2018-04-12T22:17:37.346Z,29.37
2018-04-12T22:20:39.950Z,29.33
2018-04-12T22:23:42.478Z,30.47
2018-04-12T22:26:44.954Z,31.50
2018-04-12T22:29:47.425Z,30.63
2018-04-12T22:32:49.955Z,31.67
2018-04-12T22:35:53.816Z,32.50
2018-04-12T22:38:56.351Z,31.37
2018-04-12T22:41:58.863Z,33.10
2018-04-12T22:45:01.341Z,33.20
2018-04-12T22:48:03.836Z,32.87
2018-04-12T22:51:06.338Z,34.47
2018-04-12T22:54:08.847Z,34.93
2018-04-12T22:57:11.330Z,33.60
2018-04-12T23:00:13.822Z,34.63
2018-04-12T23:03:16.337Z,34.50
2018-04-12T23:06:18.906Z,34.33
2018-04-12T23:09:21.465Z,33.40
2018-04-12T23:12:23.976Z,32.23
2018-04-12T23:15:26.462Z,32.83
2018-04-12T23:18:28.984Z,31.57
2018-04-12T23:21:31.482Z,29.23
2018-04-12T23:24:34.076Z,27.50
2018-04-12T23:27:36.576Z,30.73
2018-04-12T23:30:39.073Z,25.97
2018-04-12T23:33:41.566Z,20.03
2018-04-12T23:36:44.221Z,20.27
2018-04-12T23:39:46.787Z,18.90
2018-04-12T23:42:49.293Z,16.67
2018-04-12T23:45:51.753Z,15.93
2018-04-12T23:48:54.284Z,16.60
2018-04-12T23:51:56.777Z,17.50
2018-04-12T23:54:59.318Z,19.57
2018-04-12T23:58:01.857Z,22.10
